createdAt,value
2017-09-05T00:00:19.039Z,14.50
2017-09-05T00:02:47.884Z,14.50
2017-09-05T00:05:16.724Z,14.50
2017-09-05T00:07:49.529Z,14.40
2017-09-05T00:10:20.011Z,14.40
2017-09-05T00:12:48.682Z,14.40
2017-09-05T00:15:18.815Z,14.40
2017-09-05T00:20:54.249Z,14.40
2017-09-05T00:23:22.934Z,14.40
2017-09-05T00:25:51.583Z,14.30
2017-09-05T00:28:21.125Z,14.30
2017-09-05T00:30:50.107Z,14.30
2017-09-05T00:33:18.965Z,14.20
2017-09-05T00:35:47.808Z,14.20
2017-09-05T00:38:16.655Z,14.20
2017-09-05T00:40:45.507Z,14.20
2017-09-05T00:43:14.176Z,14.20
2017-09-05T00:45:42.835Z,14.20
2017-09-05T00:48:11.680Z,14.10
2017-09-05T00:50:40.172Z,14.00
2017-09-05T00:53:08.680Z,14.00
2017-09-05T00:55:37.182Z,14.00
2017-09-05T00:58:05.828Z,14.00
2017-09-05T01:00:34.676Z,13.90
2017-09-05T01:03:03.529Z,13.90
2017-09-05T01:05:32.046Z,13.90
2017-09-05T01:08:00.547Z,13.80
2017-09-05T01:10:29.393Z,13.80
2017-09-05T01:12:57.907Z,13.80
2017-09-05T01:15:26.562Z,13.80
2017-09-05T01:17:55.402Z,13.80
2017-09-05T01:20:23.918Z,13.70
2017-09-05T01:22:52.426Z,13.70
2017-09-05T01:25:21.282Z,13.70
2017-09-05T01:27:50.120Z,13.60
2017-09-05T01:30:18.768Z,13.60
2017-09-05T01:32:47.611Z,13.50
2017-09-05T01:35:16.465Z,13.40
2017-09-05T01:37:45.309Z,13.50
2017-09-05T01:40:14.158Z,13.30
2017-09-05T01:42:43.012Z,13.30
2017-09-05T01:45:11.867Z,13.30
2017-09-05T01:47:40.717Z,13.30
2017-09-05T01:50:09.584Z,13.30
2017-09-05T01:52:38.445Z,13.30
2017-09-05T01:55:07.297Z,13.30
2017-09-05T01:57:36.159Z,13.30
2017-09-05T02:00:04.674Z,13.30
2017-09-05T02:02:33.520Z,13.30
2017-09-05T02:05:02.362Z,13.30
2017-09-05T02:07:31.222Z,13.30
2017-09-05T02:10:00.086Z,13.30
2017-09-05T02:12:28.938Z,13.20
2017-09-05T02:14:57.794Z,13.20
2017-09-05T02:17:26.712Z,13.20
2017-09-05T02:19:55.589Z,13.20
2017-09-05T02:22:24.427Z,13.10
2017-09-05T02:24:53.265Z,13.10
2017-09-05T02:27:22.115Z,13.10
2017-09-05T02:29:50.953Z,13.10
2017-09-05T02:32:19.797Z,13.00
2017-09-05T02:34:48.641Z,13.00
2017-09-05T02:37:17.475Z,13.00
2017-09-05T02:39:46.316Z,13.00
2017-09-05T02:42:15.169Z,12.90
2017-09-05T02:44:44.008Z,12.90
2017-09-05T02:47:12.857Z,12.90
2017-09-05T02:49:41.722Z,12.80
2017-09-05T02:52:10.574Z,12.80
2017-09-05T02:54:39.412Z,12.80
2017-09-05T02:57:08.262Z,12.80
2017-09-05T02:59:37.117Z,12.70
2017-09-05T03:02:05.961Z,12.60
2017-09-05T03:04:34.821Z,12.60
2017-09-05T03:07:03.675Z,12.60
2017-09-05T03:09:32.517Z,12.60
2017-09-05T03:12:01.358Z,12.50
2017-09-05T03:14:30.209Z,12.40
2017-09-05T03:16:59.065Z,12.40
2017-09-05T03:19:27.912Z,12.40
2017-09-05T03:21:56.874Z,12.40
2017-09-05T03:24:25.712Z,12.50
2017-09-05T03:26:54.557Z,12.40
2017-09-05T03:29:23.393Z,12.40
2017-09-05T03:31:52.244Z,12.40
2017-09-05T03:34:21.103Z,12.30
2017-09-05T03:36:49.954Z,12.20
2017-09-05T03:39:19.564Z,12.30
2017-09-05T03:41:49.183Z,12.20
2017-09-05T03:44:18.037Z,12.20
2017-09-05T03:46:46.898Z,12.20
2017-09-05T03:49:15.732Z,12.20
2017-09-05T03:51:44.576Z,12.20
2017-09-05T03:54:13.420Z,12.20
2017-09-05T03:56:42.260Z,12.10
2017-09-05T03:59:11.102Z,12.00
2017-09-05T04:01:39.953Z,12.00
2017-09-05T04:04:08.812Z,12.10
2017-09-05T04:06:37.673Z,12.10
2017-09-05T04:09:06.542Z,12.00
2017-09-05T04:11:35.396Z,12.10
2017-09-05T04:14:04.248Z,12.00
2017-09-05T04:16:33.090Z,12.00
2017-09-05T04:19:01.953Z,12.00
2017-09-05T04:21:30.820Z,12.00
2017-09-05T04:23:59.664Z,12.00
2017-09-05T04:26:28.523Z,12.00
2017-09-05T04:28:57.375Z,12.00
2017-09-05T04:31:26.232Z,12.00
2017-09-05T04:33:55.077Z,11.90
2017-09-05T04:36:23.915Z,11.90
2017-09-05T04:38:52.740Z,11.90
2017-09-05T04:41:21.579Z,11.80
2017-09-05T04:43:50.480Z,11.80
2017-09-05T04:46:19.314Z,11.80
2017-09-05T04:48:48.224Z,11.80
2017-09-05T04:51:17.068Z,11.80
2017-09-05T04:53:45.957Z,11.80
2017-09-05T04:56:14.797Z,11.80
2017-09-05T04:58:44.414Z,11.80
2017-09-05T05:01:13.268Z,11.80
2017-09-05T05:03:42.114Z,11.90
2017-09-05T05:06:10.977Z,11.90
2017-09-05T05:08:39.834Z,11.90
2017-09-05T05:11:08.692Z,11.90
2017-09-05T05:13:37.545Z,12.00
2017-09-05T05:16:06.408Z,12.00
2017-09-05T05:18:35.287Z,12.00
2017-09-05T05:21:04.143Z,12.00
2017-09-05T05:23:33.036Z,11.90
2017-09-05T05:26:01.886Z,11.90
2017-09-05T05:28:30.740Z,11.90
2017-09-05T05:30:59.594Z,12.00
2017-09-05T05:33:28.453Z,12.00
2017-09-05T05:35:57.288Z,12.00
2017-09-05T05:38:26.123Z,12.00
2017-09-05T05:40:55.001Z,12.10
2017-09-05T05:43:23.866Z,12.10
2017-09-05T05:45:52.758Z,12.10
2017-09-05T05:48:22.577Z,12.10
2017-09-05T05:50:51.442Z,12.20
2017-09-05T05:53:20.302Z,12.20
2017-09-05T05:55:49.159Z,12.30
2017-09-05T05:58:18.029Z,12.40
2017-09-05T06:00:46.885Z,12.40
2017-09-05T06:03:15.750Z,12.50
2017-09-05T06:05:44.609Z,12.50
2017-09-05T06:08:13.451Z,12.60
2017-09-05T06:10:42.313Z,12.60
2017-09-05T06:13:11.173Z,12.60
2017-09-05T06:15:40.016Z,12.70
2017-09-05T06:18:08.876Z,12.70
2017-09-05T06:20:38.610Z,12.80
2017-09-05T06:23:08.234Z,13.00
2017-09-05T06:28:30.575Z,13.00
2017-09-05T06:30:59.428Z,13.10
2017-09-05T06:33:28.305Z,13.20
2017-09-05T06:35:57.219Z,13.30
2017-09-05T06:38:26.059Z,13.40
2017-09-05T06:40:54.913Z,13.50
2017-09-05T06:43:23.773Z,13.70
2017-09-05T06:45:52.663Z,13.80
2017-09-05T06:48:21.517Z,13.90
2017-09-05T06:50:50.381Z,13.90
2017-09-05T06:53:19.219Z,14.10
2017-09-05T06:55:48.081Z,14.20
2017-09-05T06:58:16.953Z,14.30
2017-09-05T07:00:45.816Z,14.40
2017-09-05T07:03:14.671Z,14.60
2017-09-05T07:05:43.520Z,14.60
2017-09-05T07:08:12.360Z,14.80
2017-09-05T07:10:41.208Z,14.90
2017-09-05T07:13:10.091Z,15.00
2017-09-05T07:15:38.597Z,15.20
2017-09-05T07:18:07.457Z,15.30
2017-09-05T07:20:36.302Z,15.40
2017-09-05T07:23:05.164Z,15.50
2017-09-05T07:25:34.017Z,15.70
2017-09-05T07:28:02.868Z,15.80
2017-09-05T07:30:31.759Z,15.90
2017-09-05T07:33:00.632Z,16.10
2017-09-05T07:35:29.472Z,16.30
2017-09-05T07:37:58.307Z,16.40
2017-09-05T07:40:27.159Z,16.60
2017-09-05T07:42:56.021Z,16.80
2017-09-05T07:45:24.889Z,16.90
2017-09-05T07:47:53.743Z,17.10
2017-09-05T07:50:22.609Z,17.30
2017-09-05T07:52:51.464Z,17.50
2017-09-05T07:55:20.413Z,17.50
2017-09-05T07:57:49.269Z,17.70
2017-09-05T08:00:18.108Z,17.90
2017-09-05T08:02:46.981Z,18.10
2017-09-05T08:05:15.839Z,18.10
2017-09-05T08:07:44.705Z,18.10
2017-09-05T08:10:13.568Z,18.30
2017-09-05T08:12:43.438Z,18.50
2017-09-05T08:15:12.293Z,18.60
2017-09-05T08:17:41.186Z,18.90
2017-09-05T08:20:10.070Z,19.00
2017-09-05T08:22:38.935Z,19.10
2017-09-05T08:25:07.791Z,19.30
2017-09-05T08:27:36.655Z,19.50
2017-09-05T08:30:05.519Z,19.80
2017-09-05T08:32:34.386Z,19.90
2017-09-05T08:35:04.010Z,20.10
2017-09-05T08:37:32.856Z,20.10
2017-09-05T08:40:01.725Z,20.20
2017-09-05T08:42:30.571Z,20.30
2017-09-05T08:44:59.435Z,20.50
2017-09-05T08:47:28.301Z,20.50
2017-09-05T08:49:57.161Z,20.70
2017-09-05T08:52:26.000Z,20.70
2017-09-05T08:54:54.858Z,20.80
2017-09-05T08:57:23.711Z,20.90
2017-09-05T08:59:52.571Z,21.00
2017-09-05T09:02:21.445Z,21.10
2017-09-05T09:04:50.296Z,21.20
2017-09-05T09:07:19.135Z,21.40
2017-09-05T09:09:48.003Z,21.40
2017-09-05T09:12:16.842Z,21.50
2017-09-05T09:14:45.695Z,21.60
2017-09-05T09:17:14.546Z,21.80
2017-09-05T09:19:43.387Z,21.80
2017-09-05T09:22:12.251Z,21.90
2017-09-05T09:24:41.636Z,22.00
2017-09-05T09:27:10.485Z,22.00
2017-09-05T09:29:39.362Z,22.10
2017-09-05T09:32:08.217Z,22.10
2017-09-05T09:34:37.076Z,22.30
2017-09-05T09:37:06.695Z,22.10
2017-09-05T09:39:35.553Z,22.00
2017-09-05T09:42:04.395Z,22.20
2017-09-05T09:44:33.267Z,22.30
2017-09-05T09:47:02.881Z,22.60
2017-09-05T09:49:31.549Z,22.50
2017-09-05T09:52:01.172Z,23.00
2017-09-05T09:54:30.801Z,23.20
2017-09-05T09:56:59.655Z,23.20
2017-09-05T09:59:28.507Z,23.30
2017-09-05T10:01:57.366Z,23.20
2017-09-05T10:04:26.223Z,23.40
2017-09-05T10:06:55.072Z,23.30
2017-09-05T10:09:23.930Z,23.30
2017-09-05T10:11:52.800Z,23.40
2017-09-05T10:14:21.646Z,23.60
2017-09-05T10:16:51.167Z,23.40
2017-09-05T10:19:20.008Z,23.40
2017-09-05T10:21:48.849Z,23.50
2017-09-05T10:24:17.706Z,23.80
2017-09-05T10:26:46.577Z,23.90
2017-09-05T10:29:15.444Z,24.00
2017-09-05T10:31:44.297Z,23.60
2017-09-05T10:34:13.156Z,23.50
2017-09-05T10:36:42.008Z,23.50
2017-09-05T10:39:10.865Z,23.50
2017-09-05T10:41:39.831Z,23.70
2017-09-05T10:44:08.693Z,24.00
2017-09-05T10:46:37.548Z,24.30
2017-09-05T10:49:06.423Z,24.30
2017-09-05T10:51:35.271Z,24.20
2017-09-05T10:54:04.907Z,23.90
2017-09-05T10:56:33.763Z,23.90
2017-09-05T10:59:02.314Z,23.80
2017-09-05T11:01:31.183Z,23.70
2017-09-05T11:04:00.029Z,24.00
2017-09-05T11:06:29.691Z,24.60
2017-09-05T11:08:58.549Z,24.60
2017-09-05T11:11:27.434Z,24.70
2017-09-05T11:13:56.288Z,24.70
2017-09-05T11:16:25.166Z,24.50
2017-09-05T11:18:54.022Z,24.70
2017-09-05T11:21:22.863Z,24.30
2017-09-05T11:23:51.726Z,24.30
2017-09-05T11:26:20.586Z,24.50
2017-09-05T11:28:49.252Z,24.50
2017-09-05T11:31:18.108Z,24.20
2017-09-05T11:33:46.969Z,24.30
2017-09-05T11:36:15.828Z,24.50
2017-09-05T11:38:44.679Z,24.70
2017-09-05T11:41:13.533Z,24.60
2017-09-05T11:43:42.382Z,24.80
2017-09-05T11:46:11.239Z,25.10
2017-09-05T11:48:40.096Z,25.20
2017-09-05T11:51:08.948Z,25.20
2017-09-05T11:53:37.805Z,25.20
2017-09-05T11:56:06.669Z,25.50
2017-09-05T11:58:35.529Z,25.60
2017-09-05T12:01:04.398Z,25.50
2017-09-05T12:03:33.254Z,25.50
2017-09-05T12:06:02.105Z,25.80
2017-09-05T12:08:30.960Z,26.00
2017-09-05T12:10:59.563Z,25.70
2017-09-05T12:13:28.159Z,25.60
2017-09-05T12:15:57.028Z,25.70
2017-09-05T12:18:25.893Z,26.00
2017-09-05T12:20:54.504Z,26.00
2017-09-05T12:23:23.074Z,25.90
2017-09-05T12:25:51.648Z,25.80
2017-09-05T12:28:20.227Z,25.90
2017-09-05T12:30:48.457Z,25.90
2017-09-05T12:33:16.376Z,26.00
2017-09-05T12:35:44.503Z,25.70
2017-09-05T12:38:12.404Z,25.50
2017-09-05T12:40:40.662Z,25.40
2017-09-05T12:43:08.548Z,25.80
2017-09-05T12:45:37.161Z,26.00
2017-09-05T12:48:05.769Z,25.90
2017-09-05T12:50:34.625Z,25.90
2017-09-05T12:53:10.572Z,25.70
2017-09-05T12:55:39.816Z,25.90
2017-09-05T12:58:08.410Z,26.20
2017-09-05T13:00:36.679Z,26.40
2017-09-05T13:03:05.270Z,26.40
2017-09-05T13:05:33.875Z,26.50
2017-09-05T13:08:02.459Z,26.20
2017-09-05T13:10:31.056Z,26.30
2017-09-05T13:12:59.694Z,26.60
2017-09-05T13:15:28.901Z,26.70
2017-09-05T13:17:57.484Z,26.60
2017-09-05T13:20:26.079Z,26.60
2017-09-05T13:22:55.433Z,26.70
2017-09-05T13:25:24.047Z,26.70
2017-09-05T13:27:52.644Z,26.80
2017-09-05T13:30:21.227Z,27.00
2017-09-05T13:32:49.814Z,26.60
2017-09-05T13:35:18.392Z,26.60
2017-09-05T13:37:46.994Z,26.20
2017-09-05T13:40:15.595Z,26.20
2017-09-05T13:42:44.219Z,26.50
2017-09-05T13:45:12.826Z,26.70
2017-09-05T13:47:41.413Z,26.90
2017-09-05T13:50:09.995Z,27.10
2017-09-05T13:52:39.315Z,27.10
2017-09-05T13:55:08.680Z,27.00
2017-09-05T13:57:37.264Z,27.00
2017-09-05T14:00:06.124Z,27.10
2017-09-05T14:02:34.713Z,27.20
2017-09-05T14:05:03.290Z,27.30
2017-09-05T14:07:31.877Z,27.60
2017-09-05T14:10:00.471Z,27.30
2017-09-05T14:12:28.877Z,26.80
2017-09-05T14:14:57.466Z,26.80
2017-09-05T14:17:26.062Z,27.10
2017-09-05T14:19:54.620Z,27.30
2017-09-05T14:22:23.196Z,27.20
2017-09-05T14:24:51.806Z,26.80
2017-09-05T14:27:20.396Z,26.60
2017-09-05T14:29:49.037Z,26.80
2017-09-05T14:32:17.620Z,26.80
2017-09-05T14:34:46.222Z,26.90
2017-09-05T14:37:14.833Z,26.70
2017-09-05T14:39:43.416Z,26.80
2017-09-05T14:42:11.995Z,26.90
2017-09-05T14:44:40.582Z,26.70
2017-09-05T14:47:09.238Z,26.60
2017-09-05T14:49:37.833Z,26.70
2017-09-05T14:52:06.429Z,26.60
2017-09-05T14:54:35.051Z,26.60
2017-09-05T14:57:03.640Z,26.60
2017-09-05T14:59:32.229Z,26.60
2017-09-05T15:02:01.589Z,26.20
2017-09-05T15:04:30.177Z,26.20
2017-09-05T15:06:58.782Z,26.50
2017-09-05T15:09:27.361Z,26.60
2017-09-05T15:11:55.947Z,26.50
2017-09-05T15:14:24.877Z,26.70
2017-09-05T15:16:53.473Z,26.80
2017-09-05T15:19:22.083Z,27.20
2017-09-05T15:21:50.651Z,27.10
2017-09-05T15:24:19.248Z,26.70
2017-09-05T15:26:47.851Z,26.60
2017-09-05T15:29:16.435Z,26.30
2017-09-05T15:31:45.033Z,26.40
2017-09-05T15:34:13.631Z,26.30
2017-09-05T15:36:42.221Z,26.10
2017-09-05T15:39:11.586Z,26.10
2017-09-05T15:41:40.168Z,26.10
2017-09-05T15:44:10.193Z,26.20
2017-09-05T15:46:38.805Z,26.30
2017-09-05T15:49:07.397Z,26.30
2017-09-05T15:51:36.015Z,26.40
2017-09-05T15:54:05.294Z,25.90
2017-09-05T15:56:33.887Z,25.90
2017-09-05T15:59:02.491Z,25.90
2017-09-05T16:01:31.394Z,25.90
2017-09-05T16:04:00.031Z,25.70
2017-09-05T16:06:29.901Z,25.70
2017-09-05T16:08:58.515Z,25.70
2017-09-05T16:11:27.120Z,25.80
2017-09-05T16:13:55.978Z,25.60
2017-09-05T16:16:24.850Z,25.50
2017-09-05T16:18:53.444Z,25.20
2017-09-05T16:21:22.052Z,25.20
2017-09-05T16:23:50.663Z,25.10
2017-09-05T16:26:19.524Z,24.90
2017-09-05T16:28:48.106Z,24.70
2017-09-05T16:31:16.953Z,24.50
2017-09-05T16:33:46.563Z,24.10
2017-09-05T16:36:15.408Z,24.10
2017-09-05T16:38:44.262Z,24.00
2017-09-05T16:41:13.116Z,24.00
2017-09-05T16:43:41.994Z,23.90
2017-09-05T16:46:10.852Z,23.80
2017-09-05T16:48:39.704Z,23.70
2017-09-05T16:51:08.584Z,23.60
2017-09-05T16:53:37.423Z,23.60
2017-09-05T16:56:06.279Z,23.50
2017-09-05T16:58:34.459Z,23.50
2017-09-05T17:01:04.084Z,23.40
2017-09-05T17:03:32.961Z,23.40
2017-09-05T17:06:01.762Z,23.30
2017-09-05T17:08:30.613Z,23.20
2017-09-05T17:10:59.481Z,23.20
2017-09-05T17:13:28.377Z,23.20
2017-09-05T17:15:57.244Z,23.20
2017-09-05T17:18:26.145Z,23.20
2017-09-05T17:20:54.983Z,23.20
2017-09-05T17:23:23.832Z,23.10
2017-09-05T17:25:52.696Z,23.10
2017-09-05T17:28:21.552Z,23.00
2017-09-05T17:30:50.446Z,23.00
2017-09-05T17:33:19.306Z,23.00
2017-09-05T17:35:48.174Z,22.90
2017-09-05T17:38:17.801Z,22.70
2017-09-05T17:40:46.662Z,22.60
2017-09-05T17:43:15.557Z,22.60
2017-09-05T17:45:44.446Z,22.50
2017-09-05T17:48:13.304Z,22.40
2017-09-05T17:50:42.156Z,22.40
2017-09-05T17:53:11.010Z,22.40
2017-09-05T17:55:39.995Z,22.30
2017-09-05T17:58:08.841Z,22.30
2017-09-05T18:00:37.731Z,22.30
2017-09-05T18:03:06.765Z,22.20
2017-09-05T18:05:35.612Z,22.10
2017-09-05T18:08:04.485Z,22.00
2017-09-05T18:10:34.610Z,21.90
2017-09-05T18:13:03.361Z,21.80
2017-09-05T18:15:32.225Z,21.70
2017-09-05T18:18:01.091Z,21.60
2017-09-05T18:20:30.112Z,21.50
2017-09-05T18:22:58.966Z,21.50
2017-09-05T18:25:27.830Z,21.40
2017-09-05T18:27:56.693Z,21.20
2017-09-05T18:30:25.554Z,21.10
2017-09-05T18:32:54.426Z,20.90
2017-09-05T18:35:23.293Z,20.90
2017-09-05T18:37:52.147Z,20.80
2017-09-05T18:40:21.012Z,20.70
2017-09-05T18:42:49.873Z,20.60
2017-09-05T18:45:18.744Z,20.60
2017-09-05T18:47:47.689Z,20.50
2017-09-05T18:50:16.542Z,20.50
2017-09-05T18:52:45.432Z,20.40
2017-09-05T18:55:16.096Z,20.40
2017-09-05T18:57:44.970Z,20.30
2017-09-05T19:00:13.812Z,20.30
2017-09-05T19:02:43.681Z,20.20
2017-09-05T19:05:12.595Z,20.20
2017-09-05T19:07:41.505Z,20.20
2017-09-05T19:10:10.490Z,20.10
2017-09-05T19:12:39.391Z,20.10
2017-09-05T19:15:08.564Z,20.10
2017-09-05T19:17:37.568Z,20.00
2017-09-05T19:20:07.347Z,20.00
2017-09-05T19:22:36.230Z,20.00
2017-09-05T19:25:05.092Z,20.00
2017-09-05T19:27:33.962Z,20.00
2017-09-05T19:30:02.840Z,20.00
2017-09-05T19:32:31.761Z,19.90
2017-09-05T19:35:00.634Z,19.90
2017-09-05T19:37:29.522Z,19.80
2017-09-05T19:39:58.384Z,19.80
2017-09-05T19:42:27.267Z,19.70
2017-09-05T19:44:56.259Z,19.70
2017-09-05T19:47:25.264Z,19.70
2017-09-05T19:49:54.122Z,19.70
2017-09-05T19:52:23.793Z,19.60
2017-09-05T19:54:52.816Z,19.60
2017-09-05T19:57:21.688Z,19.60
2017-09-05T19:59:50.568Z,19.60
2017-09-05T20:02:19.413Z,19.50
2017-09-05T20:04:48.401Z,19.50
2017-09-05T20:07:17.274Z,19.40
2017-09-05T20:09:46.132Z,19.40
2017-09-05T20:12:15.028Z,19.40
2017-09-05T20:14:43.884Z,19.40
2017-09-05T20:17:12.551Z,19.40
2017-09-05T20:19:41.422Z,19.30
2017-09-05T20:22:10.280Z,19.30
2017-09-05T20:24:39.146Z,19.30
2017-09-05T20:27:08.148Z,19.20
2017-09-05T20:29:36.838Z,19.20
2017-09-05T20:32:05.739Z,19.20
2017-09-05T20:34:34.672Z,19.20
2017-09-05T20:37:03.336Z,19.10
2017-09-05T20:39:32.197Z,19.00
2017-09-05T20:42:01.052Z,19.00
2017-09-05T20:44:30.684Z,19.00
2017-09-05T20:46:59.544Z,19.00
2017-09-05T20:49:28.405Z,19.00
2017-09-05T20:51:57.259Z,18.90
2017-09-05T20:54:26.120Z,18.90
2017-09-05T20:56:55.000Z,18.90
2017-09-05T20:59:23.861Z,18.80
2017-09-05T21:01:53.565Z,18.80
2017-09-05T21:04:22.410Z,18.80
2017-09-05T21:06:51.273Z,18.70
2017-09-05T21:09:20.139Z,18.70
2017-09-05T21:11:49.003Z,18.60
2017-09-05T21:14:17.867Z,18.60
2017-09-05T21:16:46.709Z,18.60
2017-09-05T21:19:15.569Z,18.50
2017-09-05T21:21:45.179Z,18.50
2017-09-05T21:24:14.035Z,18.50
2017-09-05T21:26:42.896Z,18.50
2017-09-05T21:29:11.749Z,18.50
2017-09-05T21:31:40.609Z,18.50
2017-09-05T21:34:09.470Z,18.40
2017-09-05T21:36:38.343Z,18.40
2017-09-05T21:39:07.526Z,18.40
2017-09-05T21:41:36.372Z,18.40
2017-09-05T21:44:05.253Z,18.40
2017-09-05T21:46:34.183Z,18.40
2017-09-05T21:49:03.034Z,18.30
2017-09-05T21:51:31.884Z,18.30
2017-09-05T21:54:00.741Z,18.30
2017-09-05T21:56:29.609Z,18.30
2017-09-05T21:58:58.481Z,18.20
2017-09-05T22:01:28.344Z,18.20
2017-09-05T22:03:57.234Z,18.20
2017-09-05T22:06:26.080Z,18.20
2017-09-05T22:08:54.920Z,18.20
2017-09-05T22:11:23.773Z,18.10
2017-09-05T22:13:58.158Z,18.10
2017-09-05T22:16:32.399Z,18.10
2017-09-05T22:19:06.659Z,18.10
2017-09-05T22:21:35.509Z,18.10
2017-09-05T22:24:04.932Z,18.00
2017-09-05T22:26:39.232Z,18.00
2017-09-05T22:29:09.761Z,18.00
2017-09-05T22:31:38.616Z,18.00
2017-09-05T22:34:07.741Z,18.00
2017-09-05T22:36:36.589Z,18.00
2017-09-05T22:39:06.219Z,18.00
2017-09-05T22:41:35.072Z,17.90
2017-09-05T22:44:03.920Z,18.00
2017-09-05T22:46:32.761Z,17.90
2017-09-05T22:49:01.609Z,17.90
2017-09-05T22:51:30.460Z,17.90
2017-09-05T22:53:59.312Z,17.80
2017-09-05T22:56:28.170Z,17.80
2017-09-05T22:58:57.027Z,17.80
2017-09-05T23:01:26.651Z,17.70
2017-09-05T23:03:55.496Z,17.70
2017-09-05T23:06:24.356Z,17.70
2017-09-05T23:08:53.225Z,17.70
2017-09-05T23:11:21.884Z,17.70
2017-09-05T23:13:50.746Z,17.70
2017-09-05T23:16:19.602Z,17.60
2017-09-05T23:18:48.587Z,17.60
2017-09-05T23:21:17.433Z,17.60
2017-09-05T23:23:46.287Z,17.50
2017-09-05T23:26:15.122Z,17.50
2017-09-05T23:28:43.964Z,17.50
2017-09-05T23:31:12.843Z,17.40
2017-09-05T23:33:41.708Z,17.40
2017-09-05T23:36:10.551Z,17.40
2017-09-05T23:38:39.392Z,17.40
2017-09-05T23:41:08.231Z,17.30
2017-09-05T23:43:37.101Z,17.30
2017-09-05T23:46:05.959Z,17.30
2017-09-05T23:48:34.812Z,17.20
2017-09-05T23:51:03.653Z,17.20
2017-09-05T23:53:32.498Z,17.20
2017-09-05T23:56:01.364Z,17.10
2017-09-05T23:58:30.218Z,17.10
